Terminal Aerodrome Forecast
Issued by NWS Twin Cities, MN

Home | Current Version | Previous Version | Graphics & Text | Print | Product List | Glossary On
Versions: 1 2 3 4 5 6 7 8 9 10 11 12 13 14 15 16 17 18 19 20 21 22 23 24 25 26 27
000
FTUS43 KMPX 280848 AAA
TAFMSP
TAF AMD
KMSP 280848Z 2809/2912 14011KT P6SM OVC009
     FM281400 15012KT P6SM OVC015
     FM282200 14007KT P6SM OVC012
     FM290200 VRB05KT P6SM OVC008
     FM290600 32012G19KT P6SM OVC008=

USA.gov is the U.S. government's official web portal to all federal, state and local government web resources and services.